Time;durP1;ratioP1;P1;durP2;ratioP2;P2;SDS_P1;SDS_P2;PMS_P1;PMS_P2;Temp;Humidity;BMP_temperature;BMP_pressure;BME280_temperature;BME280_humidity;BME280_pressure;Samples;Min_cycle;Max_cycle;Signal;HPM_P1;HPM_P2
2023/06/01 00:02:03;;;;;;;14.40;4.57;;;16.50;81.40;;;;;;4947117;28;86586;-76
2023/06/01 00:04:28;;;;;;;8.65;4.07;;;16.40;82.00;;;;;;4952163;28;86079;-77
2023/06/01 00:06:54;;;;;;;10.15;3.95;;;16.30;81.80;;;;;;4950027;28;87963;-77
2023/06/01 00:09:20;;;;;;;9.43;3.65;;;16.30;81.50;;;;;;4948252;28;88699;-76
2023/06/01 00:11:46;;;;;;;9.48;3.97;;;16.20;83.00;;;;;;4949156;28;86414;-76
2023/06/01 00:14:11;;;;;;;8.25;4.45;;;16.20;83.10;;;;;;4947716;28;86621;-76
2023/06/01 00:16:37;;;;;;;11.68;4.13;;;16.10;83.50;;;;;;4948894;28;88366;-76
2023/06/01 00:19:03;;;;;;;9.38;4.32;;;16.10;83.80;;;;;;4949534;28;86657;-76
2023/06/01 00:21:31;;;;;;;13.23;4.57;;;16.00;83.90;;;;;;4955062;28;86456;-76
2023/06/01 00:23:57;;;;;;;8.88;4.43;;;16.00;84.50;;;;;;4947969;28;86308;-75
2023/06/01 00:26:23;;;;;;;11.27;5.05;;;15.90;84.50;;;;;;4947970;28;94063;-76
2023/06/01 00:28:49;;;;;;;19.42;5.55;;;15.90;84.90;;;;;;4950329;28;86981;-76
2023/06/01 00:31:15;;;;;;;12.20;5.47;;;15.80;85.10;;;;;;4949447;28;86539;-76
2023/06/01 00:33:41;;;;;;;8.98;4.97;;;15.80;84.90;;;;;;4948324;28;86648;-76
2023/06/01 00:36:06;;;;;;;13.35;5.63;;;15.70;85.20;;;;;;4949630;28;87119;-76
2023/06/01 00:38:32;;;;;;;11.50;4.57;;;15.70;85.70;;;;;;4947457;28;86686;-76
2023/06/01 00:40:58;;;;;;;13.77;5.28;;;15.60;85.70;;;;;;4945824;28;86447;-76
2023/06/01 00:43:23;;;;;;;14.45;6.43;;;15.60;85.60;;;;;;4950036;28;86329;-75
2023/06/01 00:45:49;;;;;;;10.23;5.47;;;15.50;86.00;;;;;;4949565;28;87172;-76
2023/06/01 00:48:16;;;;;;;13.82;5.95;;;15.50;86.00;;;;;;4948150;28;87127;-76
2023/06/01 00:50:42;;;;;;;13.35;6.22;;;15.50;86.10;;;;;;4948985;28;86090;-76
2023/06/01 00:53:14;;;;;;;12.23;5.40;;;15.40;86.20;;;;;;4949060;28;85959;-77
2023/06/01 00:55:40;;;;;;;10.73;5.28;;;15.40;86.10;;;;;;4947945;28;86203;-76
2023/06/01 00:58:06;;;;;;;12.15;5.85;;;15.30;86.50;;;;;;4949727;28;86514;-75
2023/06/01 01:00:32;;;;;;;13.05;5.47;;;15.30;86.50;;;;;;4946686;28;86232;-76
2023/06/01 01:03:00;;;;;;;16.08;6.53;;;15.20;86.80;;;;;;4948634;28;85929;-76
2023/06/01 01:05:26;;;;;;;13.13;5.32;;;15.20;87.20;;;;;;4947399;28;88008;-77
2023/06/01 01:08:12;;;;;;;9.30;5.95;;;15.20;87.50;;;;;;4946347;28;86547;-77
2023/06/01 01:11:09;;;;;;;10.75;5.18;;;15.10;87.40;;;;;;4946940;28;86412;-76
2023/06/01 01:13:37;;;;;;;11.40;5.65;;;15.10;87.60;;;;;;4948441;28;86051;-76
2023/06/01 01:16:14;;;;;;;9.98;5.28;;;15.10;87.90;;;;;;4948329;28;87026;-76
2023/06/01 01:18:45;;;;;;;13.15;5.25;;;15.00;88.00;;;;;;4949116;28;87429;-77
2023/06/01 01:21:24;;;;;;;12.15;6.00;;;14.90;87.80;;;;;;4947143;28;86274;-76
2023/06/01 01:24:39;;;;;;;11.68;6.30;;;14.80;88.60;;;;;;4948130;28;86564;-76
2023/06/01 01:27:26;;;;;;;13.23;6.30;;;14.80;89.00;;;;;;4945962;28;88076;-76
2023/06/01 01:29:54;;;;;;;9.20;5.38;;;14.80;88.60;;;;;;4947886;28;87506;-76
2023/06/01 01:32:23;;;;;;;11.90;5.45;;;14.70;89.00;;;;;;4949295;28;86128;-76
2023/06/01 01:34:50;;;;;;;13.60;6.53;;;14.70;88.60;;;;;;4947834;28;86607;-77
2023/06/01 01:37:16;;;;;;;13.98;7.05;;;14.60;89.30;;;;;;4948050;28;87486;-76
2023/06/01 01:39:42;;;;;;;16.95;6.53;;;14.60;89.50;;;;;;4946670;28;87451;-76
2023/06/01 01:42:08;;;;;;;12.27;6.28;;;14.60;89.30;;;;;;4948255;28;85839;-77
2023/06/01 01:44:33;;;;;;;15.95;6.93;;;14.50;89.90;;;;;;4949002;28;86459;-76
2023/06/01 01:47:36;;;;;;;11.43;6.93;;;14.50;89.70;;;;;;4947450;28;86425;-76
2023/06/01 01:50:09;;;;;;;16.63;8.23;;;14.40;90.10;;;;;;4919326;28;87427;-76
2023/06/01 01:52:38;;;;;;;13.67;7.67;;;14.30;90.10;;;;;;4948104;28;86625;-76
2023/06/01 01:55:07;;;;;;;12.55;6.78;;;14.30;89.50;;;;;;4948928;28;85937;-76
2023/06/01 01:57:34;;;;;;;13.82;7.20;;;14.30;89.90;;;;;;4947861;28;88501;-76
2023/06/01 02:00:00;;;;;;;11.57;6.80;;;14.30;90.30;;;;;;4970286;28;88454;-76
2023/06/01 02:02:26;;;;;;;20.60;6.85;;;14.20;90.10;;;;;;4949760;28;86219;-76
2023/06/01 02:04:52;;;;;;;13.43;7.40;;;14.10;90.10;;;;;;4946899;28;85949;-77
2023/06/01 02:07:17;;;;;;;13.95;7.60;;;14.10;90.30;;;;;;4948515;28;87421;-76
2023/06/01 02:09:43;;;;;;;13.20;6.95;;;14.10;90.60;;;;;;4947398;28;86944;-76
2023/06/01 02:12:09;;;;;;;19.40;7.43;;;14.00;90.60;;;;;;4947330;28;86250;-76
2023/06/01 02:14:35;;;;;;;12.15;7.13;;;13.90;90.60;;;;;;4948552;28;86678;-76
2023/06/01 02:17:00;;;;;;;12.73;7.53;;;13.90;90.90;;;;;;4948363;28;87431;-76
2023/06/01 02:19:29;;;;;;;20.02;8.13;;;13.90;90.70;;;;;;4946283;28;87026;-76
2023/06/01 02:21:55;;;;;;;14.60;7.75;;;13.80;90.80;;;;;;4947207;28;86131;-76
2023/06/01 02:24:20;;;;;;;17.50;8.00;;;13.80;90.60;;;;;;4946875;28;86126;-76
2023/06/01 02:26:48;;;;;;;13.88;7.50;;;13.70;91.00;;;;;;4948724;28;86670;-76
2023/06/01 02:29:14;;;;;;;15.63;7.53;;;13.70;90.90;;;;;;4945531;28;89866;-76
2023/06/01 02:31:40;;;;;;;18.75;8.00;;;13.60;90.80;;;;;;4948080;28;86534;-76
2023/06/01 02:34:06;;;;;;;16.02;8.35;;;13.60;91.10;;;;;;4948644;28;86298;-77
2023/06/01 02:36:32;;;;;;;14.43;8.35;;;13.50;91.20;;;;;;4948258;28;87574;-76
2023/06/01 02:38:58;;;;;;;17.48;8.43;;;13.50;91.20;;;;;;4947741;28;86550;-76
2023/06/01 02:41:25;;;;;;;16.85;9.13;;;13.40;91.20;;;;;;4945544;28;87101;-76
2023/06/01 02:43:51;;;;;;;23.33;9.15;;;13.40;91.40;;;;;;4946587;28;86746;-76
2023/06/01 02:46:19;;;;;;;16.98;9.07;;;13.40;91.40;;;;;;4947770;28;87322;-76
2023/06/01 02:48:46;;;;;;;20.65;8.90;;;13.40;91.50;;;;;;4945561;28;87044;-76
2023/06/01 02:51:12;;;;;;;17.02;9.35;;;13.30;91.40;;;;;;4948793;28;86410;-76
2023/06/01 02:53:41;;;;;;;19.00;9.98;;;13.20;91.40;;;;;;4948123;28;86964;-76
2023/06/01 02:56:06;;;;;;;20.30;10.10;;;13.20;91.40;;;;;;4946316;28;88477;-76
2023/06/01 02:58:32;;;;;;;17.20;8.88;;;13.10;91.60;;;;;;4946742;28;86540;-76
2023/06/01 03:00:58;;;;;;;19.20;9.93;;;13.10;91.90;;;;;;4947444;28;86238;-76
2023/06/01 03:03:27;;;;;;;17.00;9.57;;;13.00;91.50;;;;;;4948365;28;86149;-76
2023/06/01 03:05:53;;;;;;;16.08;9.52;;;13.10;91.70;;;;;;4948284;28;86116;-77
2023/06/01 03:08:19;;;;;;;18.45;10.30;;;13.00;91.80;;;;;;4946688;28;86978;-76
2023/06/01 03:10:45;;;;;;;21.42;10.13;;;13.00;91.90;;;;;;4948275;28;86336;-76
2023/06/01 03:13:11;;;;;;;17.48;9.93;;;12.90;91.90;;;;;;4946634;28;86491;-76
2023/06/01 03:15:37;;;;;;;21.00;10.60;;;12.90;92.00;;;;;;4947328;28;87328;-76
2023/06/01 03:18:06;;;;;;;21.80;10.10;;;12.80;91.90;;;;;;4946405;28;86590;-76
2023/06/01 03:20:33;;;;;;;15.55;9.48;;;12.80;91.90;;;;;;4944022;28;87538;-76
2023/06/01 03:22:58;;;;;;;20.38;10.90;;;12.80;92.20;;;;;;4951078;28;86313;-76
2023/06/01 03:25:24;;;;;;;20.52;11.20;;;12.70;92.00;;;;;;4949762;28;87579;-76
2023/06/01 03:27:51;;;;;;;18.98;10.52;;;12.70;92.20;;;;;;4950455;28;87421;-76
2023/06/01 03:30:17;;;;;;;21.67;10.77;;;12.70;92.20;;;;;;4951739;28;86316;-77
2023/06/01 03:32:44;;;;;;;16.63;11.00;;;12.60;92.10;;;;;;4949793;28;86507;-76
2023/06/01 03:35:11;;;;;;;18.88;10.50;;;12.60;92.30;;;;;;4949885;28;87344;-76
2023/06/01 03:37:39;;;;;;;22.50;11.38;;;12.60;92.40;;;;;;4948193;28;86367;-76
2023/06/01 03:40:10;;;;;;;24.83;13.43;;;12.50;92.30;;;;;;4950050;28;86256;-76
2023/06/01 03:42:46;;;;;;;22.70;11.73;;;12.50;92.30;;;;;;4949882;28;86269;-77
2023/06/01 03:45:12;;;;;;;20.33;12.10;;;12.50;92.40;;;;;;4948508;28;87288;-76
2023/06/01 03:47:39;;;;;;;20.48;11.63;;;12.40;92.60;;;;;;4949472;28;87736;-76
2023/06/01 03:50:06;;;;;;;23.05;11.68;;;12.50;92.40;;;;;;4949713;28;86517;-76
2023/06/01 03:52:32;;;;;;;21.83;11.93;;;12.40;92.50;;;;;;4946644;28;87457;-76
2023/06/01 03:55:00;;;;;;;22.45;12.57;;;12.40;92.70;;;;;;4949921;28;86869;-76
2023/06/01 03:57:26;;;;;;;20.80;12.80;;;12.40;92.80;;;;;;4946854;28;88603;-76
2023/06/01 03:59:52;;;;;;;18.67;12.15;;;12.30;92.90;;;;;;4948831;28;86259;-77
2023/06/01 04:02:18;;;;;;;19.98;12.48;;;12.30;93.00;;;;;;4949726;28;86500;-77
2023/06/01 04:04:47;;;;;;;24.35;12.75;;;12.30;92.80;;;;;;4949726;28;86669;-76
2023/06/01 04:07:21;;;;;;;25.63;13.55;;;12.30;92.90;;;;;;4950122;28;87064;-77
2023/06/01 04:09:47;;;;;;;20.92;12.63;;;12.30;93.20;;;;;;4948610;28;86142;-77
2023/06/01 04:12:13;;;;;;;23.17;12.85;;;12.30;92.90;;;;;;4948940;28;86645;-77
2023/06/01 04:14:40;;;;;;;23.08;13.45;;;12.30;92.90;;;;;;4948456;28;87059;-77
2023/06/01 04:17:06;;;;;;;28.25;14.13;;;12.30;93.10;;;;;;4949782;28;86804;-77
2023/06/01 04:19:33;;;;;;;24.40;13.77;;;12.30;93.10;;;;;;4947898;28;86451;-77
2023/06/01 04:21:59;;;;;;;33.85;13.95;;;12.30;92.80;;;;;;4948982;28;86376;-76
2023/06/01 04:24:25;;;;;;;24.52;14.13;;;12.30;93.00;;;;;;4947806;28;88078;-76
2023/06/01 04:26:50;;;;;;;24.05;14.20;;;12.30;93.00;;;;;;4948035;28;86609;-76
2023/06/01 04:29:19;;;;;;;26.70;14.68;;;12.30;92.80;;;;;;4947823;28;86387;-77
2023/06/01 04:31:45;;;;;;;27.38;14.38;;;12.40;92.90;;;;;;4947813;28;86399;-76
2023/06/01 04:34:10;;;;;;;25.40;14.23;;;12.40;92.90;;;;;;4948335;28;87248;-77
2023/06/01 04:36:38;;;;;;;24.25;14.43;;;12.30;92.90;;;;;;4948713;28;86601;-76
2023/06/01 04:39:08;;;;;;;30.00;15.85;;;12.30;93.10;;;;;;4948200;28;86708;-76
2023/06/01 04:41:38;;;;;;;31.98;14.73;;;12.30;93.20;;;;;;4947779;28;86027;-76
2023/06/01 04:44:05;;;;;;;28.08;15.45;;;12.30;92.90;;;;;;4948691;28;87875;-77
2023/06/01 04:46:31;;;;;;;25.83;14.10;;;12.40;93.00;;;;;;4947445;28;86704;-76
2023/06/01 04:48:59;;;;;;;29.20;15.00;;;12.40;92.80;;;;;;4949930;28;86708;-76
2023/06/01 04:51:26;;;;;;;28.60;15.32;;;12.40;93.10;;;;;;4948042;28;86744;-77
2023/06/01 04:53:53;;;;;;;27.38;14.88;;;12.40;92.90;;;;;;4948401;28;88324;-76
2023/06/01 04:56:24;;;;;;;28.35;15.35;;;12.40;92.80;;;;;;4947275;28;86630;-76
2023/06/01 04:58:50;;;;;;;27.38;16.55;;;12.50;93.10;;;;;;4945370;28;86476;-76
2023/06/01 05:01:16;;;;;;;31.00;17.02;;;12.50;92.70;;;;;;4947654;28;86718;-76
2023/06/01 05:03:42;;;;;;;26.73;15.38;;;12.50;92.60;;;;;;4945939;28;87295;-77
2023/06/01 05:06:10;;;;;;;29.33;17.05;;;12.60;92.30;;;;;;4948104;28;86987;-76
2023/06/01 05:08:36;;;;;;;33.38;16.95;;;12.70;92.50;;;;;;4948372;28;86484;-77
2023/06/01 05:11:02;;;;;;;32.75;15.88;;;12.70;92.60;;;;;;4946759;28;86508;-76
2023/06/01 05:13:28;;;;;;;31.10;17.77;;;12.80;92.00;;;;;;4946944;28;87456;-77
2023/06/01 05:15:53;;;;;;;31.83;18.73;;;12.90;92.00;;;;;;4948273;28;87377;-77
2023/06/01 05:18:19;;;;;;;42.70;22.88;;;12.90;91.80;;;;;;4948494;28;86118;-76
2023/06/01 05:20:45;;;;;;;41.97;22.75;;;12.90;91.70;;;;;;4946804;28;86322;-76
2023/06/01 05:23:11;;;;;;;41.33;21.05;;;12.90;91.50;;;;;;4948249;28;87803;-77
2023/06/01 05:25:36;;;;;;;48.30;24.67;;;13.00;91.80;;;;;;4949564;28;85961;-77
2023/06/01 05:28:02;;;;;;;47.58;25.42;;;13.00;91.50;;;;;;4948724;28;86074;-76
2023/06/01 05:30:28;;;;;;;51.33;27.92;;;13.00;91.60;;;;;;4948308;28;86194;-76
2023/06/01 05:32:53;;;;;;;55.08;30.27;;;13.10;91.60;;;;;;4949409;28;87175;-77
2023/06/01 05:35:20;;;;;;;54.85;30.02;;;13.10;91.40;;;;;;4947213;28;87527;-77
2023/06/01 05:37:45;;;;;;;54.38;29.52;;;13.10;91.50;;;;;;4944483;28;86537;-76
2023/06/01 05:40:11;;;;;;;54.30;29.75;;;13.20;91.60;;;;;;4946202;28;86144;-77
2023/06/01 05:42:37;;;;;;;54.70;28.98;;;13.30;91.40;;;;;;4943905;28;86468;-77
2023/06/01 05:45:03;;;;;;;53.83;28.80;;;13.30;91.00;;;;;;4944448;28;86959;-77
2023/06/01 05:47:28;;;;;;;46.47;28.17;;;13.30;91.00;;;;;;4943249;28;86565;-77
2023/06/01 05:49:54;;;;;;;50.08;27.20;;;13.30;90.90;;;;;;4947821;28;86707;-77
2023/06/01 05:52:20;;;;;;;50.95;29.08;;;13.30;90.90;;;;;;4947058;28;87374;-77
2023/06/01 05:54:45;;;;;;;47.75;27.00;;;13.30;90.90;;;;;;4945332;28;87440;-77
2023/06/01 05:57:11;;;;;;;50.42;27.50;;;13.30;90.90;;;;;;4950385;28;86510;-82
2023/06/01 06:12:37;;;;;;;48.78;27.90;;;13.50;90.80;;;;;;5377382;22;87477;-86
2023/06/01 06:20:45;;;;;;;47.47;27.60;;;13.70;90.20;;;;;;5157566;22;87329;-86
2023/06/01 06:28:30;;;;;;;47.10;26.70;;;13.80;90.10;;;;;;5949523;22;87353;-84
2023/06/01 06:31:19;;;;;;;43.40;25.40;;;13.70;89.80;;;;;;4964806;28;85859;-84
2023/06/01 06:37:04;;;;;;;44.85;26.88;;;13.90;89.90;;;;;;4962866;28;86442;-84
2023/06/01 06:39:31;;;;;;;50.50;28.13;;;14.00;88.40;;;;;;4965296;28;86481;-84
2023/06/01 06:42:00;;;;;;;46.03;24.52;;;14.20;88.60;;;;;;4951106;28;86495;-84
2023/06/01 06:44:27;;;;;;;36.95;22.92;;;14.30;87.90;;;;;;4978723;28;87888;-83
2023/06/01 06:46:53;;;;;;;41.22;23.15;;;14.40;87.60;;;;;;4946608;28;88692;-84
2023/06/01 06:49:20;;;;;;;38.10;23.52;;;14.60;86.20;;;;;;4948917;28;86572;-84
2023/06/01 06:51:48;;;;;;;37.55;22.95;;;14.70;86.60;;;;;;4978350;28;86449;-82
2023/06/01 06:54:14;;;;;;;40.00;22.30;;;14.80;85.40;;;;;;4944439;28;88996;-83
2023/06/01 06:56:39;;;;;;;35.10;22.02;;;14.80;84.40;;;;;;4957648;28;87615;-82
2023/06/01 06:59:08;;;;;;;36.42;21.67;;;14.70;84.80;;;;;;4941882;28;85884;-84
2023/06/01 07:01:38;;;;;;;34.92;21.58;;;14.70;84.90;;;;;;4956385;28;86471;-83
2023/06/01 07:04:05;;;;;;;35.58;22.15;;;14.70;84.40;;;;;;4979701;28;86803;-82
2023/06/01 07:06:34;;;;;;;32.35;20.33;;;14.80;85.60;;;;;;4963930;28;86066;-83
2023/06/01 07:09:00;;;;;;;30.50;19.42;;;14.90;84.70;;;;;;4955746;28;85899;-82
2023/06/01 07:11:28;;;;;;;33.15;20.05;;;15.20;84.10;;;;;;4956305;28;85970;-83
2023/06/01 07:13:57;;;;;;;30.50;20.35;;;15.40;84.00;;;;;;4950453;28;86980;-82
2023/06/01 07:16:30;;;;;;;25.13;18.88;;;15.60;82.30;;;;;;4972505;28;88858;-85
2023/06/01 07:21:36;;;;;;;29.98;19.60;;;15.70;80.40;;;;;;4944513;28;86843;-79
2023/06/01 07:24:02;;;;;;;28.42;19.77;;;15.60;80.20;;;;;;4947889;28;87914;-82
2023/06/01 07:26:29;;;;;;;30.00;19.52;;;15.70;80.70;;;;;;4935586;28;88752;-79
2023/06/01 07:28:56;;;;;;;30.05;20.27;;;15.70;80.50;;;;;;4947244;28;86251;-77
2023/06/01 07:31:22;;;;;;;28.30;18.02;;;15.60;80.10;;;;;;4950308;28;86665;-77
2023/06/01 07:33:48;;;;;;;30.58;18.55;;;15.60;79.60;;;;;;4945457;28;86476;-77
2023/06/01 07:36:16;;;;;;;27.65;17.10;;;15.80;81.10;;;;;;4945904;28;86802;-77
2023/06/01 07:38:42;;;;;;;27.70;17.95;;;16.10;81.50;;;;;;4946029;28;86586;-76
2023/06/01 07:41:10;;;;;;;23.35;16.98;;;16.40;80.60;;;;;;4945320;28;86595;-77
2023/06/01 07:43:37;;;;;;;25.23;17.45;;;16.70;78.30;;;;;;4944515;28;87082;-77
2023/06/01 07:46:03;;;;;;;22.10;15.93;;;17.00;78.70;;;;;;4947675;28;87079;-77
2023/06/01 07:48:28;;;;;;;23.50;16.80;;;17.20;75.90;;;;;;4945108;28;85828;-77
2023/06/01 07:50:54;;;;;;;24.10;16.50;;;17.30;75.60;;;;;;4946727;28;86796;-77
2023/06/01 07:53:20;;;;;;;23.30;15.02;;;17.40;75.00;;;;;;4945451;28;88079;-77
2023/06/01 07:55:48;;;;;;;25.80;16.80;;;17.60;72.20;;;;;;4946084;28;86326;-77
2023/06/01 07:58:14;;;;;;;20.55;13.50;;;17.70;73.30;;;;;;4937625;28;86424;-77
2023/06/01 08:00:40;;;;;;;21.15;13.88;;;17.80;71.40;;;;;;4945089;28;86588;-77
2023/06/01 08:03:06;;;;;;;22.20;13.82;;;17.90;71.40;;;;;;4945392;28;87979;-77
2023/06/01 08:05:36;;;;;;;25.10;14.48;;;17.90;71.70;;;;;;4945791;28;86848;-77
2023/06/01 08:08:01;;;;;;;19.75;13.68;;;18.00;71.50;;;;;;4946659;28;85984;-90
2023/06/01 08:10:27;;;;;;;21.33;14.18;;;18.00;71.10;;;;;;4949774;28;86562;-87
2023/06/01 08:12:55;;;;;;;21.30;14.38;;;17.90;72.40;;;;;;4950875;28;87356;-82
2023/06/01 08:15:23;;;;;;;21.50;14.63;;;18.00;72.40;;;;;;4949499;28;87334;-82
2023/06/01 08:17:50;;;;;;;20.02;14.75;;;18.10;72.10;;;;;;4950230;28;86177;-83
2023/06/01 08:20:21;;;;;;;24.27;14.30;;;18.40;70.80;;;;;;4940084;28;87250;-84
2023/06/01 08:22:47;;;;;;;18.95;13.38;;;18.40;70.50;;;;;;4939953;28;88825;-81
2023/06/01 08:25:14;;;;;;;23.85;15.63;;;18.30;70.80;;;;;;4952453;28;86998;-84
2023/06/01 08:27:40;;;;;;;26.35;15.32;;;18.50;72.00;;;;;;4932975;28;87395;-84
2023/06/01 08:30:06;;;;;;;25.02;15.75;;;18.40;70.70;;;;;;4949461;28;86550;-85
2023/06/01 08:32:32;;;;;;;24.52;14.15;;;18.50;71.30;;;;;;4938443;28;90136;-84
2023/06/01 08:34:58;;;;;;;22.08;13.70;;;18.50;69.70;;;;;;4933650;28;88591;-87
2023/06/01 08:37:24;;;;;;;22.67;14.93;;;18.60;70.40;;;;;;4940324;28;86379;-87
2023/06/01 08:39:50;;;;;;;21.45;14.48;;;18.80;67.50;;;;;;4938819;28;87365;-86
2023/06/01 08:42:32;;;;;;;23.63;13.63;;;19.00;69.20;;;;;;4938228;28;90009;-88
2023/06/01 08:44:58;;;;;;;17.10;13.38;;;19.20;67.70;;;;;;4931194;28;89767;-87
2023/06/01 08:47:27;;;;;;;18.10;12.23;;;19.50;67.70;;;;;;4936763;28;87768;-90
2023/06/01 08:49:53;;;;;;;19.98;12.85;;;19.70;66.70;;;;;;4940362;28;86511;-86
2023/06/01 08:52:21;;;;;;;33.75;21.38;;;20.00;65.90;;;;;;4932962;28;89908;-85
2023/06/01 08:54:47;;;;;;;19.40;12.82;;;20.30;68.90;;;;;;4956158;28;89589;-86
2023/06/01 08:57:13;;;;;;;20.27;12.70;;;20.60;65.70;;;;;;4939601;28;87496;-86
2023/06/01 08:59:39;;;;;;;19.13;11.73;;;20.80;65.60;;;;;;4934366;28;86976;-85
2023/06/01 09:02:06;;;;;;;21.38;11.95;;;21.10;64.50;;;;;;4948128;28;86162;-86
2023/06/01 09:04:37;;;;;;;15.18;9.93;;;21.30;63.00;;;;;;4953668;28;89382;-79
2023/06/01 09:07:03;;;;;;;19.30;10.93;;;21.50;62.40;;;;;;4939558;28;86616;-81
2023/06/01 09:09:28;;;;;;;13.32;10.57;;;21.60;61.50;;;;;;4930369;28;86429;-82
2023/06/01 09:12:21;;;;;;;16.50;12.52;;;21.70;60.10;;;;;;4949879;28;87702;-82
2023/06/01 09:14:47;;;;;;;16.15;11.10;;;21.80;60.50;;;;;;4937444;28;90331;-82
2023/06/01 09:17:15;;;;;;;17.55;11.75;;;22.00;59.80;;;;;;4931701;28;86244;-82
2023/06/01 09:19:44;;;;;;;20.95;11.57;;;22.10;60.50;;;;;;4938782;28;86788;-81
2023/06/01 09:22:11;;;;;;;17.42;12.00;;;22.30;58.50;;;;;;4950623;28;87795;-82
2023/06/01 09:24:36;;;;;;;20.20;10.45;;;22.60;58.60;;;;;;4947433;28;86663;-81
2023/06/01 09:27:03;;;;;;;16.05;10.88;;;22.90;58.60;;;;;;4947711;28;85993;-81
2023/06/01 09:29:29;;;;;;;16.85;9.30;;;23.20;57.00;;;;;;4948198;28;86503;-81
2023/06/01 09:31:55;;;;;;;13.10;8.40;;;23.30;57.40;;;;;;4948629;28;87189;-81
2023/06/01 09:34:21;;;;;;;19.35;9.57;;;23.40;56.80;;;;;;4935303;28;90160;-81
2023/06/01 09:36:49;;;;;;;14.35;9.45;;;23.40;56.10;;;;;;4949071;28;86716;-81
2023/06/01 09:39:23;;;;;;;12.90;9.45;;;23.50;56.10;;;;;;4948813;28;86573;-82
2023/06/01 09:42:01;;;;;;;16.27;10.35;;;23.60;53.80;;;;;;4932555;28;90271;-80
2023/06/01 09:44:32;;;;;;;17.23;10.25;;;23.70;55.80;;;;;;4947491;28;87059;-80
2023/06/01 09:47:01;;;;;;;15.10;10.38;;;23.80;53.10;;;;;;4939336;28;86212;-80
2023/06/01 09:49:29;;;;;;;14.27;9.15;;;23.60;52.80;;;;;;4948134;28;86327;-80
2023/06/01 09:52:14;;;;;;;14.30;7.03;;;23.70;54.60;;;;;;4948977;28;87587;-80
2023/06/01 09:54:48;;;;;;;14.40;8.48;;;23.90;53.90;;;;;;4948882;28;86530;-80
2023/06/01 09:57:21;;;;;;;10.00;6.97;;;24.30;53.50;;;;;;4948847;28;86494;-80
2023/06/01 09:59:47;;;;;;;18.30;11.90;;;24.60;53.30;;;;;;4940267;28;86119;-81
2023/06/01 10:02:15;;;;;;;12.82;8.10;;;24.60;53.30;;;;;;4949146;28;87270;-80
2023/06/01 10:04:48;;;;;;;12.68;9.15;;;24.60;52.60;;;;;;4956296;28;89511;-80
2023/06/01 10:07:15;;;;;;;15.63;9.68;;;24.30;52.20;;;;;;4947975;28;86017;-81
2023/06/01 10:09:43;;;;;;;15.70;9.15;;;24.00;51.20;;;;;;4939786;28;86458;-80
2023/06/01 10:12:09;;;;;;;16.02;9.27;;;23.90;52.20;;;;;;4950415;28;86226;-81
2023/06/01 10:14:38;;;;;;;15.18;10.55;;;24.50;53.40;;;;;;4934559;28;90349;-81
2023/06/01 10:17:04;;;;;;;15.27;10.13;;;24.80;52.00;;;;;;4930827;28;86198;-81
2023/06/01 10:19:30;;;;;;;15.75;10.07;;;24.80;51.30;;;;;;4946956;28;86318;-81
2023/06/01 10:21:59;;;;;;;16.52;10.20;;;25.10;51.30;;;;;;4930720;28;90571;-81
2023/06/01 10:24:26;;;;;;;14.05;10.38;;;25.20;49.40;;;;;;4946584;28;86320;-81
2023/06/01 10:27:02;;;;;;;15.35;9.85;;;25.00;50.30;;;;;;4946271;28;86292;-81
2023/06/01 10:29:30;;;;;;;12.63;9.20;;;25.10;48.40;;;;;;4955755;28;86133;-81
2023/06/01 10:31:57;;;;;;;16.90;10.73;;;25.30;51.90;;;;;;4946934;28;86726;-81
2023/06/01 10:34:44;;;;;;;17.60;8.32;;;25.50;48.60;;;;;;4931065;28;89854;-81
2023/06/01 10:37:14;;;;;;;15.63;10.75;;;25.70;49.40;;;;;;4939635;28;89211;-81
2023/06/01 10:39:40;;;;;;;16.60;7.72;;;25.80;48.60;;;;;;4947245;28;86368;-81
2023/06/01 10:42:15;;;;;;;18.38;11.63;;;26.10;49.00;;;;;;4947990;28;86114;-81
2023/06/01 10:44:40;;;;;;;15.02;9.32;;;26.30;46.70;;;;;;4953794;28;90327;-81
2023/06/01 10:47:26;;;;;;;15.27;8.90;;;26.00;45.50;;;;;;4930465;28;86186;-82
2023/06/01 10:49:52;;;;;;;15.00;11.48;;;26.10;46.40;;;;;;4947068;28;86615;-79
2023/06/01 10:52:32;;;;;;;13.05;8.93;;;26.20;46.70;;;;;;4947236;28;87691;-78
2023/06/01 10:55:10;;;;;;;15.48;9.43;;;26.30;46.20;;;;;;4949442;28;91418;-79
2023/06/01 10:57:40;;;;;;;16.20;9.48;;;26.50;46.70;;;;;;4949775;28;86438;-79
2023/06/01 11:00:09;;;;;;;11.75;7.60;;;26.90;47.30;;;;;;4947252;28;86239;-78
2023/06/01 11:02:34;;;;;;;12.35;8.13;;;27.50;45.50;;;;;;4954968;28;89045;-79
2023/06/01 11:05:34;;;;;;;17.98;9.25;;;27.70;45.30;;;;;;4947987;28;86894;-78
2023/06/01 11:08:00;;;;;;;12.57;9.18;;;27.80;44.60;;;;;;4954561;28;87245;-78
2023/06/01 11:10:50;;;;;;;11.75;8.45;;;28.00;43.40;;;;;;4948601;28;86111;-77
2023/06/01 11:13:19;;;;;;;14.93;7.40;;;28.30;43.00;;;;;;4949273;28;87159;-77
2023/06/01 11:16:03;;;;;;;14.27;10.35;;;28.60;44.60;;;;;;4937780;28;90817;-79
2023/06/01 11:18:46;;;;;;;10.13;7.40;;;28.30;41.20;;;;;;4954077;28;86592;-80
2023/06/01 11:21:29;;;;;;;14.53;9.23;;;28.00;42.00;;;;;;4948186;28;86799;-81
2023/06/01 11:23:59;;;;;;;12.82;8.63;;;28.20;42.90;;;;;;4950443;28;86944;-80
2023/06/01 11:26:33;;;;;;;14.15;9.77;;;28.40;41.20;;;;;;4947910;28;86206;-80
2023/06/01 11:29:34;;;;;;;16.42;10.73;;;28.50;42.40;;;;;;4945309;28;86468;-80
2023/06/01 11:32:03;;;;;;;17.65;10.20;;;28.30;40.60;;;;;;4932825;28;87223;-80
2023/06/01 11:34:34;;;;;;;10.63;6.55;;;28.30;42.90;;;;;;4946231;28;86119;-82
2023/06/01 11:37:01;;;;;;;15.48;10.48;;;28.50;43.70;;;;;;4947653;28;86561;-81
2023/06/01 11:39:30;;;;;;;17.27;11.00;;;28.60;42.50;;;;;;4936326;28;86697;-80
2023/06/01 11:42:05;;;;;;;13.75;7.75;;;28.80;42.80;;;;;;4946552;28;86377;-78
2023/06/01 11:44:31;;;;;;;15.93;9.10;;;29.10;42.60;;;;;;4949018;28;88155;-78
2023/06/01 11:46:58;;;;;;;18.38;9.85;;;29.40;43.00;;;;;;4949190;28;90350;-78
2023/06/01 11:49:24;;;;;;;14.68;8.00;;;29.70;43.10;;;;;;4951021;28;86601;-79
2023/06/01 11:51:51;;;;;;;14.07;8.88;;;30.00;42.30;;;;;;4936723;28;86179;-79
2023/06/01 11:54:21;;;;;;;11.15;7.22;;;30.30;42.40;;;;;;4936261;28;90195;-79
2023/06/01 11:56:46;;;;;;;12.73;7.82;;;30.30;42.10;;;;;;4931761;28;89015;-79
2023/06/01 11:59:12;;;;;;;16.52;10.55;;;30.40;42.00;;;;;;4938884;28;86431;-80
2023/06/01 12:01:48;;;;;;;13.23;9.57;;;30.20;38.60;;;;;;4950015;28;86383;-80
2023/06/01 12:04:18;;;;;;;12.68;8.80;;;29.60;42.70;;;;;;4950881;28;87386;-80
2023/06/01 12:06:45;;;;;;;15.95;9.88;;;29.80;41.30;;;;;;4940572;28;87690;-80
2023/06/01 12:09:13;;;;;;;18.92;8.80;;;30.20;40.10;;;;;;4939282;28;86746;-80
2023/06/01 12:11:39;;;;;;;16.58;10.68;;;30.40;42.10;;;;;;4950115;28;86366;-80
2023/06/01 12:14:06;;;;;;;12.35;7.15;;;30.20;39.00;;;;;;4932321;28;89642;-80
2023/06/01 12:16:54;;;;;;;11.98;8.10;;;30.40;41.20;;;;;;4951232;28;87083;-80
2023/06/01 12:19:21;;;;;;;10.48;7.40;;;30.90;40.60;;;;;;4950941;28;86450;-80
2023/06/01 12:21:50;;;;;;;11.05;7.38;;;31.00;40.10;;;;;;4949595;28;86474;-80
2023/06/01 12:24:36;;;;;;;13.30;6.65;;;30.80;39.90;;;;;;4950379;28;86426;-80
2023/06/01 12:27:14;;;;;;;13.35;7.70;;;30.80;37.90;;;;;;4949458;28;86575;-80
2023/06/01 12:29:41;;;;;;;16.08;8.57;;;30.50;40.00;;;;;;4952627;28;86462;-80
2023/06/01 12:32:08;;;;;;;13.80;7.00;;;30.50;37.50;;;;;;4951837;28;86280;-81
2023/06/01 12:34:36;;;;;;;12.10;7.47;;;30.20;37.50;;;;;;4931460;28;89169;-80
2023/06/01 12:37:15;;;;;;;9.85;7.07;;;30.30;36.90;;;;;;4950114;28;86858;-80
2023/06/01 12:39:41;;;;;;;12.75;6.78;;;30.40;39.10;;;;;;4948789;28;86554;-80
2023/06/01 12:42:09;;;;;;;11.80;8.25;;;30.50;37.80;;;;;;4949411;28;86647;-80
2023/06/01 12:44:35;;;;;;;11.85;7.47;;;30.70;37.80;;;;;;4951572;28;87682;-80
2023/06/01 12:47:02;;;;;;;11.07;6.57;;;30.70;38.10;;;;;;4949977;28;87272;-80
2023/06/01 12:49:28;;;;;;;14.30;7.82;;;30.90;38.80;;;;;;4949919;28;86332;-80
2023/06/01 12:51:54;;;;;;;10.55;6.32;;;31.00;38.60;;;;;;4951660;28;86619;-80
2023/06/01 12:54:20;;;;;;;11.80;6.90;;;31.30;38.90;;;;;;4948921;28;86918;-81
2023/06/01 12:56:48;;;;;;;10.77;5.68;;;31.80;38.00;;;;;;4950650;28;86790;-80
2023/06/01 12:59:14;;;;;;;13.52;8.63;;;32.10;38.00;;;;;;4952119;28;85959;-80
2023/06/01 13:01:40;;;;;;;10.52;6.47;;;32.20;36.20;;;;;;4929947;28;86530;-80
2023/06/01 13:04:07;;;;;;;9.52;6.22;;;32.00;37.40;;;;;;4951989;28;86481;-80
2023/06/01 13:06:34;;;;;;;10.95;7.32;;;32.20;37.20;;;;;;4939420;28;90015;-80
2023/06/01 13:09:00;;;;;;;8.63;6.60;;;32.40;35.10;;;;;;4948907;28;86341;-80
2023/06/01 13:11:27;;;;;;;11.00;7.05;;;32.20;36.90;;;;;;4948082;28;86410;-79